• Join FlightAware (Why Join?)
  • Login
  • US Flag 
06:01AM EDT


 

Airport Tracker/Info


-or-


 

Live Flight TrackerFlight Track Log ✈ UAL6012 ✈ 22-Mar-2014 ✈ KPVD - KIAD

Flight Track Log - Related Links

Times and Time Zones

All times are in EDT time to prevent confusion due to time zone crossing. See the UAL6012 flight status page for this flight to view local times or setup timezone preferences in your user account.

Time Position Orientation Groundspeed Altitude Reporting Facility
EDT Latitude Longitude Course Direction KTS MPH feet Rate Location/Type
06:01AM 41.7083 -71.4381 287° West 159 183 600  Level Boston Center
06:01AM 41.6972 -71.4514 222° Southwest 152 175 1,500 2,040 Climbing Boston Center
06:02AM 41.6931 -71.5158 265° West 180 207 3,500 2,040 Climbing Boston Center
06:03AM 41.7300 -71.5731 311° West 206 237 5,700 2,460 Climbing Boston Center
06:04AM 41.7597 -71.6508 297° West 226 260 8,500 2,340 Climbing Boston Center
06:05AM 41.9500 -71.8405 270° West  Level FlightAware Approximate
06:05AM 41.7725 -71.7344 282° West 228 262 10,500  Level Boston Center
06:06AM 41.9739 -71.9702 287° West  Level FlightAware Approximate
06:06AM 41.7864 -71.8303 281° West 270 311 11,200  Level Boston Center
06:08AM 41.8025 -71.9408 281° West 300 345 12,800 1,620 Climbing Boston Center
06:09AM 41.8056 -72.0525 272° West 297 342 14,500 1,620 Climbing Boston Center
06:10AM 41.8061 -72.1636 270° West 298 343 16,100 1,200 Climbing Boston Center
06:13AM 41.8086 -72.5047 270° West 315 362 19,500 1,080 Climbing Boston Center
06:14AM 41.8078 -72.6242 270° West 318 366 20,600 960 Climbing Boston Center
06:15AM 41.8078 -72.7497 270° West 330 380 21,500 1,020 Climbing Boston Center
06:16AM 41.8075 -72.8747 270° West 333 383 22,700 1,680 Climbing Boston Center
06:17AM 41.8072 -72.9939 270° West 324 373 25,000 1,680 Climbing Boston Center
06:18AM 41.7992 -73.1058 265° West 307 353 26,200 1,260 Climbing Boston Center
06:19AM 41.7481 -73.1967 233° Southwest 312 359 27,600 1,260 Climbing Boston Center
06:20AM 41.6956 -73.2858 232° Southwest 309 356 28,800 1,140 Climbing Boston Center
06:21AM 41.6442 -73.3739 232° Southwest 305 351 29,900 540 Climbing Boston Center
06:22AM 41.5892 -73.4639 231° Southwest 307 353 30,000  Climbing Boston Center
06:23AM 41.5192 -73.5814 232° Southwest 331 381 30,000  Level Boston Center
06:24AM 41.4567 -73.6864 232° Southwest 354 407 30,000  Level Boston Center
06:25AM 41.3925 -73.7931 231° Southwest 366 421 30,000  Level Boston Center
06:26AM 41.3297 -73.8975 231° Southwest 366 421 30,000  Level Boston Center
06:27AM 41.2544 -74.0222 231° Southwest 366 421 30,000  Level New York Center
06:28AM 41.1889 -74.1292 231° Southwest 366 421 30,000 -180 Level New York Center
06:29AM 41.1256 -74.2306 230° Southwest 366 421 29,700 -660 Descending New York Center
06:30AM 41.0619 -74.3347 231° Southwest 366 421 28,700 -900 Descending New York Center
06:31AM 40.9983 -74.4414 232° Southwest 366 421 28,000 -360 Descending New York Center
06:32AM 40.9325 -74.5450 230° Southwest 366 421 28,000  Level New York Center
06:33AM 40.8831 -74.6575 240° Southwest 361 415 28,000  Level New York Center
06:34AM 40.8478 -74.7761 249° West 354 407 28,000  Level New York Center
06:35AM 40.8128 -74.8892 248° West 347 399 28,000 -300 Level New York Center
06:36AM 40.7797 -74.9969 248° West 337 388 27,500 -780 Descending New York Center
06:37AM 40.7467 -75.1069 248° West 331 381 26,500 -1,020 Descending New York Center
06:38AM 40.7111 -75.2172 247° West 326 375 25,500 -1,020 Descending New York Center
06:39AM 40.6778 -75.3297 249° West 326 375 24,500 -1,080 Descending New York Center
06:40AM 40.6403 -75.4342 245° Southwest 326 375 23,400 -1,080 Descending New York Center
06:41AM 40.5947 -75.5347 239° Southwest 326 375 22,400 -1,080 Descending New York Center
06:42AM 40.5533 -75.6303 240° Southwest 315 362 21,300 -1,200 Descending New York Center
06:43AM 40.5072 -75.7333 240° Southwest 315 362 20,000 -660 Descending New York Center
06:44AM 40.4678 -75.8317 242° Southwest 315 362 20,000  Level New York Center
06:45AM 40.4028 -75.9331 230° Southwest 344 396 20,000  Level New York Center
06:46AM 40.3322 -76.0231 224° Southwest 358 412 20,000  Level New York Center
06:47AM 40.2614 -76.1131 224° Southwest 363 418 20,000  Level New York Center
06:48AM 40.2047 -76.2147 234° Southwest 358 412 20,000  Level New York Center
06:49AM 40.1450 -76.3322 236° Southwest 358 412 20,000  Level New York Center
06:51AM 40.0333 -76.5500 236° Southwest 353 406 20,000  Level Potomac TRACON
06:52AM 39.9667 -76.6500 229° Southwest 357 411 20,000 -780 Level Potomac TRACON
06:53AM 39.9167 -76.7667 241° Southwest 352 405 18,500 -1,680 Descending Potomac TRACON
06:54AM 39.8667 -76.8667 237° Southwest 338 389 16,700 -1,740 Descending Potomac TRACON
06:55AM 39.8167 -76.9500 232° Southwest 323 372 15,200 -1,740 Descending Potomac TRACON
06:56AM 39.7667 -77.0333 232° Southwest 312 359 13,400 -1,800 Descending Potomac TRACON
06:57AM 39.7333 -77.1333 247° West 309 356 11,800 -1,740 Descending Potomac TRACON
06:58AM 39.6833 -77.2167 232° Southwest 305 351 10,200 -960 Descending Potomac TRACON
06:59AM 39.6500 -77.3000 243° Southwest 266 306 9,900 -840 Descending Potomac TRACON
07:00AM 39.6000 -77.3833 232° Southwest 242 278 8,600 -1,500 Descending Potomac TRACON
07:01AM 39.5500 -77.4167 207° Southwest 246 283 7,000 -1,440 Descending Potomac TRACON
07:02AM 39.5000 -77.4500 207° Southwest 244 281 5,900 -1,080 Descending Potomac TRACON
07:03AM 39.4167 -77.4500 180° South 257 296 5,000 -540 Descending Potomac TRACON
07:04AM 39.3500 -77.4500 180° South 234 269 4,900  Descending Potomac TRACON
07:05AM 39.3000 -77.4500 180° South 228 262 5,000  Climbing Potomac TRACON
07:06AM 39.2333 -77.4500 180° South 209 241 5,000 -300 Level Potomac TRACON
07:07AM 39.1833 -77.4500 180° South 212 244 4,400 -900 Descending Potomac TRACON
07:08AM 39.1333 -77.4500 180° South 194 223 3,400 -1,080 Descending Potomac TRACON
07:09AM 39.0833 -77.4500 180° South 161 185 2,400 -900 Descending Potomac TRACON
07:10AM 39.0500 -77.4667 201° Southwest 128 147 1,700 -660 Descending Potomac TRACON
07:11AM 39.0167 -77.4667 180° South 112 129 1,100 -600 Descending Potomac TRACON
07:12AM 38.9833 -77.4667 180° South 121 139 500 -600 Descending Potomac TRACON